Time;durP1;ratioP1;P1;durP2;ratioP2;P2;SDS_P1;SDS_P2;PMS_P1;PMS_P2;Temp;Humidity;BMP_temperature;BMP_pressure;BME280_temperature;BME280_humidity;BME280_pressure;Samples;Min_cycle;Max_cycle;Signal;HPM_P1;HPM_P2
2021/04/30 00:02:10;;;;;;;9.75;5.10;;;8.70;81.00;;;;;;4984466;28;20061;-90
2021/04/30 00:04:36;;;;;;;9.23;5.28;;;8.80;81.00;;;;;;4993697;28;20058;-90
2021/04/30 00:07:01;;;;;;;10.63;6.43;;;8.80;81.00;;;;;;4993855;28;20054;-90
2021/04/30 00:09:27;;;;;;;10.23;5.68;;;8.80;81.00;;;;;;4993613;28;20014;-90
2021/04/30 00:11:52;;;;;;;10.55;6.00;;;8.80;81.00;;;;;;4993539;28;20077;-89
2021/04/30 00:14:18;;;;;;;16.58;7.20;;;8.70;81.00;;;;;;4983263;28;20015;-91
2021/04/30 00:16:44;;;;;;;10.68;5.32;;;8.70;81.10;;;;;;4992350;28;20029;-91
2021/04/30 00:19:10;;;;;;;9.30;5.15;;;8.70;81.20;;;;;;4993331;28;20023;-90
2021/04/30 00:21:39;;;;;;;8.40;5.35;;;8.70;81.20;;;;;;4991998;28;20053;-92
2021/04/30 00:24:06;;;;;;;11.32;5.70;;;8.70;81.10;;;;;;4992573;28;20377;-92
2021/04/30 00:26:32;;;;;;;12.05;6.18;;;8.80;81.20;;;;;;4992554;28;20066;-91
2021/04/30 00:28:58;;;;;;;12.15;5.95;;;8.70;81.10;;;;;;4991285;28;20436;-88
2021/04/30 00:31:26;;;;;;;8.77;5.32;;;8.70;81.20;;;;;;4993041;28;20114;-90
2021/04/30 00:33:51;;;;;;;7.05;4.13;;;8.70;81.20;;;;;;5002035;28;20026;-90
2021/04/30 00:36:17;;;;;;;11.38;5.43;;;8.70;81.30;;;;;;4991501;28;20121;-89
2021/04/30 00:38:43;;;;;;;9.95;4.95;;;8.80;81.30;;;;;;4993063;28;20033;-90
2021/04/30 00:41:08;;;;;;;8.13;5.18;;;8.80;81.20;;;;;;4991418;28;20074;-88
2021/04/30 00:43:34;;;;;;;9.63;5.53;;;8.80;81.20;;;;;;4998561;28;20031;-90
2021/04/30 00:45:59;;;;;;;10.68;5.60;;;8.80;81.10;;;;;;4992546;28;20033;-90
2021/04/30 00:48:25;;;;;;;9.63;4.82;;;8.80;81.10;;;;;;4987842;28;20026;-88
2021/04/30 00:50:52;;;;;;;8.00;4.97;;;8.90;81.10;;;;;;4973161;28;20026;-89
2021/04/30 00:53:18;;;;;;;8.80;5.60;;;8.90;81.00;;;;;;4995344;28;20404;-89
2021/04/30 00:55:44;;;;;;;7.57;4.95;;;8.90;81.00;;;;;;4992656;28;20023;-92
2021/04/30 00:58:10;;;;;;;9.38;5.35;;;8.90;81.10;;;;;;4992242;28;20050;-91
2021/04/30 01:00:36;;;;;;;10.30;5.35;;;8.90;81.00;;;;;;4993008;28;20038;-91
2021/04/30 01:03:06;;;;;;;10.52;5.75;;;9.00;81.00;;;;;;4991181;28;20493;-89
2021/04/30 01:05:31;;;;;;;9.35;5.55;;;8.90;81.00;;;;;;4972901;28;20435;-88
2021/04/30 01:07:57;;;;;;;9.95;5.03;;;9.00;81.00;;;;;;4982693;28;20046;-88
2021/04/30 01:10:23;;;;;;;7.90;4.65;;;9.00;81.50;;;;;;4992405;28;20023;-91
2021/04/30 01:12:49;;;;;;;10.50;5.32;;;9.00;80.90;;;;;;4993199;28;20026;-91
2021/04/30 01:15:16;;;;;;;7.43;4.40;;;9.00;80.90;;;;;;4992700;28;20037;-91
2021/04/30 01:17:42;;;;;;;7.75;4.95;;;9.00;80.80;;;;;;4995487;28;20402;-90
2021/04/30 01:20:10;;;;;;;8.48;4.45;;;9.00;80.70;;;;;;4992338;28;20022;-89
2021/04/30 01:22:48;;;;;;;7.80;4.90;;;9.10;80.70;;;;;;4992401;28;20054;-90
2021/04/30 01:25:16;;;;;;;8.23;4.18;;;9.10;80.60;;;;;;4992735;28;20366;-91
2021/04/30 01:27:43;;;;;;;14.05;7.13;;;9.10;80.60;;;;;;4991407;28;20022;-92
2021/04/30 01:30:26;;;;;;;11.45;6.65;;;9.10;80.50;;;;;;4992434;28;20069;-92
2021/04/30 01:32:52;;;;;;;11.13;5.13;;;9.10;80.60;;;;;;4991646;28;20042;-92
2021/04/30 01:35:24;;;;;;;9.65;5.97;;;9.10;80.60;;;;;;4978564;28;20023;-92
2021/04/30 01:37:51;;;;;;;8.90;4.88;;;9.10;80.70;;;;;;4992629;28;20096;-92
2021/04/30 01:40:23;;;;;;;7.65;4.80;;;9.10;80.70;;;;;;4992465;28;20042;-91
2021/04/30 01:43:00;;;;;;;9.68;5.18;;;9.10;80.70;;;;;;4991988;28;20046;-89
2021/04/30 01:45:27;;;;;;;7.75;4.70;;;9.10;80.70;;;;;;4992032;28;20023;-89
2021/04/30 01:47:53;;;;;;;9.00;5.22;;;9.10;80.70;;;;;;4992157;28;20022;-88
2021/04/30 01:50:19;;;;;;;10.82;6.53;;;9.10;80.70;;;;;;4990596;28;20019;-89
2021/04/30 01:52:45;;;;;;;11.80;5.88;;;9.10;80.70;;;;;;4991432;28;20020;-89
2021/04/30 01:55:10;;;;;;;9.63;6.38;;;9.10;80.80;;;;;;4990899;28;20033;-89
2021/04/30 01:57:36;;;;;;;8.63;5.53;;;9.00;80.80;;;;;;4991840;28;20469;-91
2021/04/30 02:00:05;;;;;;;8.13;4.97;;;9.00;80.90;;;;;;4991439;28;20428;-89
2021/04/30 02:02:44;;;;;;;8.82;5.20;;;9.10;81.00;;;;;;4992071;28;20037;-94
2021/04/30 02:05:10;;;;;;;13.98;5.53;;;9.10;80.90;;;;;;4991817;28;20029;-93
2021/04/30 02:07:36;;;;;;;9.68;5.18;;;9.10;80.80;;;;;;5012286;28;20476;-93
2021/04/30 02:10:05;;;;;;;11.73;6.22;;;9.10;80.70;;;;;;5015296;28;20026;-93
2021/04/30 02:12:44;;;;;;;11.30;5.35;;;9.20;80.70;;;;;;5000003;28;20018;-93
2021/04/30 02:15:13;;;;;;;7.95;4.93;;;9.10;80.80;;;;;;4996305;28;20436;-93
2021/04/30 02:17:39;;;;;;;9.60;5.78;;;9.10;80.70;;;;;;4996306;28;20050;-93
2021/04/30 02:20:06;;;;;;;10.32;5.00;;;9.10;80.60;;;;;;4997446;28;20022;-93
2021/04/30 02:22:32;;;;;;;9.93;4.85;;;9.20;80.70;;;;;;4993931;28;20034;-88
2021/04/30 02:24:57;;;;;;;9.15;5.53;;;9.20;80.70;;;;;;4993653;28;20480;-89
2021/04/30 02:27:24;;;;;;;13.75;6.82;;;9.20;80.60;;;;;;4995042;28;20030;-89
2021/04/30 02:29:49;;;;;;;9.27;5.30;;;9.20;80.60;;;;;;4995601;28;20022;-89
2021/04/30 02:32:15;;;;;;;10.05;5.75;;;9.20;80.60;;;;;;4994082;28;20026;-91
2021/04/30 02:34:41;;;;;;;11.50;5.90;;;9.20;80.70;;;;;;4998818;28;20022;-89
2021/04/30 02:37:06;;;;;;;7.13;4.63;;;9.20;80.70;;;;;;4995966;28;20109;-90
2021/04/30 02:39:32;;;;;;;9.05;5.15;;;9.20;80.70;;;;;;4999544;28;20030;-90
2021/04/30 02:41:58;;;;;;;11.55;5.63;;;9.20;80.60;;;;;;5009950;28;20080;-90
2021/04/30 02:44:24;;;;;;;10.63;5.53;;;9.30;80.60;;;;;;4995176;28;20026;-90
2021/04/30 02:46:49;;;;;;;11.50;5.93;;;9.30;80.50;;;;;;4986528;28;20042;-91
2021/04/30 02:49:17;;;;;;;8.35;4.75;;;9.30;80.50;;;;;;4979579;28;20548;-91
2021/04/30 02:51:42;;;;;;;12.40;5.20;;;9.30;80.50;;;;;;4994781;28;20034;-90
2021/04/30 02:54:08;;;;;;;8.85;4.78;;;9.30;80.40;;;;;;4995237;28;20053;-91
2021/04/30 02:56:38;;;;;;;8.57;4.72;;;9.40;80.40;;;;;;4995152;28;20396;-90
2021/04/30 02:59:05;;;;;;;8.75;4.45;;;9.40;80.30;;;;;;4993764;28;20045;-91
2021/04/30 03:01:31;;;;;;;11.55;5.22;;;9.40;80.30;;;;;;4993761;28;20058;-90
2021/04/30 03:03:56;;;;;;;7.15;4.80;;;9.40;80.20;;;;;;4994458;28;20081;-89
2021/04/30 03:06:23;;;;;;;7.30;4.20;;;9.40;80.30;;;;;;4994253;28;20100;-89
2021/04/30 03:08:52;;;;;;;8.95;5.13;;;9.40;80.30;;;;;;4992725;28;20018;-89
2021/04/30 03:11:17;;;;;;;9.25;4.75;;;9.40;80.20;;;;;;4993805;28;20045;-89
2021/04/30 03:13:43;;;;;;;8.98;4.82;;;9.40;80.80;;;;;;4996168;28;20113;-89
2021/04/30 03:16:09;;;;;;;9.43;4.85;;;9.40;80.10;;;;;;5007980;28;20034;-92
2021/04/30 03:18:35;;;;;;;9.50;5.47;;;9.40;80.10;;;;;;4995204;28;20018;-92
2021/04/30 03:21:01;;;;;;;9.75;4.63;;;9.40;80.10;;;;;;4994617;28;20026;-92
2021/04/30 03:23:26;;;;;;;9.15;4.80;;;9.40;80.10;;;;;;4994450;28;20030;-91
2021/04/30 03:25:52;;;;;;;10.43;4.78;;;9.40;80.00;;;;;;4993177;28;20034;-91
2021/04/30 03:28:17;;;;;;;9.25;4.85;;;9.50;80.10;;;;;;4994751;28;20084;-91
2021/04/30 03:30:43;;;;;;;8.10;5.07;;;9.40;80.00;;;;;;4992731;28;20030;-89
2021/04/30 03:33:11;;;;;;;8.18;4.75;;;9.40;80.10;;;;;;4993740;28;20058;-91
2021/04/30 03:35:36;;;;;;;7.25;4.40;;;9.40;80.10;;;;;;4994571;28;20027;-91
2021/04/30 03:38:03;;;;;;;7.68;4.80;;;9.50;80.10;;;;;;5003569;28;20026;-91
2021/04/30 03:40:29;;;;;;;9.75;5.05;;;9.50;80.10;;;;;;4992617;28;20508;-91
2021/04/30 03:42:54;;;;;;;8.98;5.07;;;9.50;80.10;;;;;;4994235;28;20026;-90
2021/04/30 03:45:20;;;;;;;8.20;4.50;;;9.50;79.90;;;;;;4975263;28;20035;-90
2021/04/30 03:47:45;;;;;;;8.40;5.35;;;9.60;80.00;;;;;;5006845;28;20477;-91
2021/04/30 03:50:11;;;;;;;9.02;4.97;;;9.50;79.80;;;;;;4993741;28;20026;-90
2021/04/30 03:52:37;;;;;;;11.70;5.25;;;9.50;79.80;;;;;;4993963;28;20393;-91
2021/04/30 03:55:04;;;;;;;9.60;4.85;;;9.50;79.80;;;;;;4993360;28;20022;-89
2021/04/30 03:57:30;;;;;;;8.00;4.97;;;9.50;79.70;;;;;;4992688;28;20035;-88
2021/04/30 03:59:55;;;;;;;8.45;5.00;;;9.60;79.80;;;;;;4992462;28;20034;-88
2021/04/30 04:02:21;;;;;;;9.18;4.75;;;9.50;79.70;;;;;;4993334;28;20385;-89
2021/04/30 04:04:46;;;;;;;12.15;5.90;;;9.50;79.80;;;;;;4992618;28;20035;-89
2021/04/30 04:07:12;;;;;;;10.60;5.20;;;9.50;79.80;;;;;;4992005;28;20038;-91
2021/04/30 04:09:38;;;;;;;8.55;5.32;;;9.50;79.80;;;;;;5013073;28;20026;-92
2021/04/30 04:12:08;;;;;;;9.73;4.95;;;9.50;79.80;;;;;;5005288;28;20605;-89
2021/04/30 04:14:33;;;;;;;10.55;5.20;;;9.50;79.80;;;;;;4992269;28;20022;-89
2021/04/30 04:16:59;;;;;;;11.63;5.18;;;9.50;79.80;;;;;;4993247;28;20113;-89
2021/04/30 04:19:24;;;;;;;8.95;5.20;;;9.50;79.70;;;;;;4990961;28;20033;-88
2021/04/30 04:21:50;;;;;;;9.07;5.28;;;9.50;79.80;;;;;;4992030;28;20050;-87
2021/04/30 04:24:16;;;;;;;11.23;5.68;;;9.50;79.80;;;;;;4992692;28;20027;-88
2021/04/30 04:26:42;;;;;;;11.55;5.45;;;9.40;79.80;;;;;;4990963;28;20030;-87
2021/04/30 04:29:08;;;;;;;8.52;5.05;;;9.50;79.80;;;;;;4994687;28;20218;-90
2021/04/30 04:31:37;;;;;;;9.30;5.25;;;9.50;80.40;;;;;;5005803;28;20019;-88
2021/04/30 04:34:03;;;;;;;8.85;6.07;;;9.50;79.80;;;;;;4991468;28;20030;-88
2021/04/30 04:36:29;;;;;;;9.82;5.20;;;9.50;79.60;;;;;;4992681;28;20029;-89
2021/04/30 04:38:55;;;;;;;10.40;6.32;;;9.50;79.50;;;;;;4994860;28;20022;-88
2021/04/30 04:41:21;;;;;;;14.95;6.50;;;9.50;79.60;;;;;;5011507;28;20037;-90
2021/04/30 04:43:47;;;;;;;11.00;6.13;;;9.50;79.60;;;;;;4991189;28;20032;-88
2021/04/30 04:46:12;;;;;;;9.35;5.47;;;9.50;79.80;;;;;;4992745;28;20022;-89
2021/04/30 04:48:38;;;;;;;10.48;6.57;;;9.50;79.70;;;;;;4993755;28;20030;-88
2021/04/30 04:51:04;;;;;;;11.38;6.13;;;9.50;79.70;;;;;;4992084;28;20022;-90
2021/04/30 04:53:29;;;;;;;8.50;5.78;;;9.60;79.70;;;;;;4998796;28;20149;-89
2021/04/30 04:55:55;;;;;;;12.02;7.22;;;9.60;79.70;;;;;;4994057;28;20034;-88
2021/04/30 04:58:20;;;;;;;13.43;6.95;;;9.60;79.60;;;;;;4991515;28;20030;-88
2021/04/30 05:00:46;;;;;;;11.32;6.18;;;9.60;79.60;;;;;;4991471;28;20046;-88
2021/04/30 05:03:12;;;;;;;12.43;6.50;;;9.60;79.60;;;;;;4992547;28;20019;-89
2021/04/30 05:05:37;;;;;;;10.52;6.50;;;9.60;79.60;;;;;;4993461;28;20026;-91
2021/04/30 05:08:03;;;;;;;12.43;6.32;;;9.60;79.60;;;;;;4992912;28;20014;-90
2021/04/30 05:10:29;;;;;;;12.55;6.20;;;9.60;79.60;;;;;;4992050;28;20027;-89
2021/04/30 05:12:54;;;;;;;11.15;6.10;;;9.60;79.60;;;;;;4992679;28;20030;-89
2021/04/30 05:15:21;;;;;;;10.23;6.28;;;9.60;79.60;;;;;;4999612;28;20033;-88
2021/04/30 05:17:47;;;;;;;9.23;6.22;;;9.60;79.60;;;;;;4990888;28;20018;-90
2021/04/30 05:20:13;;;;;;;10.25;5.88;;;9.70;79.60;;;;;;4990300;28;20508;-89
2021/04/30 05:22:40;;;;;;;10.38;5.45;;;9.70;79.70;;;;;;4990472;28;20485;-88
2021/04/30 05:25:11;;;;;;;10.23;6.13;;;9.70;79.40;;;;;;4989372;28;20061;-88
2021/04/30 05:27:40;;;;;;;9.45;6.18;;;9.70;79.30;;;;;;4991028;28;20014;-88
2021/04/30 05:30:07;;;;;;;12.27;7.25;;;9.80;79.40;;;;;;4990177;28;20050;-88
2021/04/30 05:32:32;;;;;;;11.73;6.70;;;9.80;79.30;;;;;;4990918;28;20065;-89
2021/04/30 05:34:59;;;;;;;12.32;6.45;;;9.80;79.20;;;;;;4990067;28;20054;-88
2021/04/30 05:37:25;;;;;;;12.07;6.93;;;9.80;79.20;;;;;;4991301;28;20030;-89
2021/04/30 05:39:51;;;;;;;13.13;7.22;;;9.80;79.20;;;;;;4989706;28;20086;-88
2021/04/30 05:42:16;;;;;;;10.15;6.50;;;9.80;79.20;;;;;;4992752;28;20141;-91
2021/04/30 05:44:43;;;;;;;11.32;6.25;;;9.80;79.20;;;;;;5003212;28;20478;-91
2021/04/30 05:47:09;;;;;;;11.68;6.13;;;9.80;79.30;;;;;;4994951;28;20061;-89
2021/04/30 05:49:34;;;;;;;9.23;6.00;;;9.80;79.30;;;;;;5001894;28;20380;-88
2021/04/30 05:52:00;;;;;;;11.30;6.93;;;9.80;79.30;;;;;;4995142;28;20562;-88
2021/04/30 05:54:25;;;;;;;9.73;6.40;;;9.80;79.30;;;;;;4996727;28;20022;-89
2021/04/30 05:56:51;;;;;;;12.60;6.95;;;9.80;79.40;;;;;;4995655;28;20057;-89
2021/04/30 05:59:16;;;;;;;10.13;6.25;;;9.80;79.40;;;;;;4994898;28;20026;-89
2021/04/30 06:01:42;;;;;;;10.20;6.50;;;9.80;79.40;;;;;;4997717;28;20035;-90
2021/04/30 06:04:08;;;;;;;12.02;7.20;;;9.80;79.30;;;;;;4997960;28;20023;-89
2021/04/30 06:06:33;;;;;;;11.50;7.13;;;9.90;79.30;;;;;;4998556;28;20472;-88
2021/04/30 06:08:59;;;;;;;12.35;7.57;;;9.90;79.30;;;;;;4997921;28;20023;-86
2021/04/30 06:11:25;;;;;;;10.95;6.97;;;9.90;79.20;;;;;;4996599;28;20045;-88
2021/04/30 06:13:50;;;;;;;13.23;6.82;;;10.00;79.20;;;;;;4994217;28;20018;-89
2021/04/30 06:16:16;;;;;;;10.57;7.05;;;10.00;79.10;;;;;;4996090;28;20022;-89
2021/04/30 06:18:43;;;;;;;8.93;6.40;;;10.00;79.00;;;;;;4993961;28;20389;-87
2021/04/30 06:21:10;;;;;;;12.25;8.52;;;10.00;79.10;;;;;;4992777;28;20038;-88
2021/04/30 06:23:35;;;;;;;10.30;6.55;;;10.00;79.10;;;;;;4993908;28;20050;-89
2021/04/30 06:26:01;;;;;;;11.93;7.10;;;10.00;79.10;;;;;;4991808;28;20034;-87
2021/04/30 06:28:27;;;;;;;13.82;7.75;;;10.00;79.00;;;;;;4995259;28;20481;-89
2021/04/30 06:30:52;;;;;;;8.98;6.53;;;10.00;79.00;;;;;;4997958;28;20026;-87
2021/04/30 06:33:18;;;;;;;9.35;6.90;;;10.00;79.00;;;;;;4995512;28;20412;-89
2021/04/30 06:35:43;;;;;;;11.82;6.78;;;10.10;79.00;;;;;;4994296;28;20018;-89
2021/04/30 06:38:09;;;;;;;14.73;10.10;;;10.10;79.00;;;;;;4994618;28;20077;-88
2021/04/30 06:40:34;;;;;;;13.40;9.52;;;10.10;79.00;;;;;;4993916;28;20092;-89
2021/04/30 06:43:00;;;;;;;14.10;8.60;;;10.00;79.10;;;;;;4994629;28;20015;-89
2021/04/30 06:45:26;;;;;;;11.60;8.13;;;10.00;79.10;;;;;;4996492;28;20773;-88
2021/04/30 06:47:51;;;;;;;9.90;7.30;;;10.00;79.00;;;;;;4994064;28;20018;-89
2021/04/30 06:50:17;;;;;;;11.68;7.10;;;10.10;78.90;;;;;;4994450;28;20030;-90
2021/04/30 06:52:42;;;;;;;9.82;6.97;;;10.10;79.00;;;;;;4997181;28;20113;-89
2021/04/30 06:55:09;;;;;;;9.65;7.10;;;10.10;78.90;;;;;;4993118;28;20053;-89
2021/04/30 06:57:35;;;;;;;10.85;7.10;;;10.10;78.90;;;;;;4993115;28;20359;-91
2021/04/30 07:00:00;;;;;;;11.13;7.05;;;10.20;78.90;;;;;;4993821;28;20057;-90
2021/04/30 07:02:29;;;;;;;10.45;7.60;;;10.20;78.90;;;;;;4994276;28;20026;-89
2021/04/30 07:04:57;;;;;;;11.43;7.32;;;10.20;78.90;;;;;;4994704;28;20020;-89
2021/04/30 07:07:22;;;;;;;12.02;8.00;;;10.30;78.80;;;;;;5007419;28;20122;-89
2021/04/30 07:09:49;;;;;;;11.20;7.88;;;10.40;78.70;;;;;;4983780;28;20101;-88
2021/04/30 07:12:14;;;;;;;17.17;10.13;;;10.50;78.50;;;;;;4993573;28;20019;-89
2021/04/30 07:14:40;;;;;;;12.10;8.75;;;10.50;78.40;;;;;;4992456;28;20408;-88
2021/04/30 07:17:06;;;;;;;14.48;8.00;;;10.50;78.30;;;;;;4987183;28;20068;-88
2021/04/30 07:19:31;;;;;;;11.93;8.88;;;10.60;78.20;;;;;;4992549;28;20031;-88
2021/04/30 07:21:57;;;;;;;14.15;10.35;;;10.60;78.10;;;;;;4992712;28;20038;-88
2021/04/30 07:24:22;;;;;;;9.48;7.40;;;10.60;78.80;;;;;;4992466;28;20045;-89
2021/04/30 07:26:48;;;;;;;13.68;10.43;;;10.60;78.20;;;;;;4992044;28;20062;-88
2021/04/30 07:29:15;;;;;;;13.40;9.30;;;10.60;78.10;;;;;;4992383;28;20033;-88
2021/04/30 07:31:40;;;;;;;12.85;9.18;;;10.60;78.20;;;;;;4992193;28;20027;-86
2021/04/30 07:34:06;;;;;;;10.88;8.48;;;10.70;78.10;;;;;;4999089;28;20439;-87
2021/04/30 07:36:31;;;;;;;11.82;7.95;;;10.80;78.00;;;;;;4994544;28;20026;-88
2021/04/30 07:38:57;;;;;;;15.30;10.70;;;10.90;77.80;;;;;;4991949;28;20056;-86
2021/04/30 07:41:23;;;;;;;10.65;8.52;;;11.00;77.50;;;;;;4990281;28;20031;-87
2021/04/30 07:43:48;;;;;;;14.57;10.30;;;10.90;77.30;;;;;;4992906;28;20497;-86
2021/04/30 07:46:14;;;;;;;13.90;10.90;;;10.90;77.50;;;;;;4991848;28;20014;-87
2021/04/30 07:48:39;;;;;;;13.05;10.10;;;10.90;77.40;;;;;;4991164;28;20022;-85
2021/04/30 07:51:05;;;;;;;15.02;10.95;;;11.00;77.50;;;;;;4988964;28;20022;-86
2021/04/30 07:53:32;;;;;;;14.38;11.52;;;11.00;77.40;;;;;;4991765;28;20053;-87
2021/04/30 07:55:59;;;;;;;17.55;13.15;;;11.00;77.40;;;;;;4991657;28;20068;-86
2021/04/30 07:58:27;;;;;;;14.43;11.18;;;11.10;77.30;;;;;;4990324;28;20026;-87
2021/04/30 08:00:58;;;;;;;15.77;12.65;;;11.10;77.10;;;;;;4990823;28;20034;-88
2021/04/30 08:03:24;;;;;;;12.82;9.15;;;11.20;76.80;;;;;;4991143;28;20030;-86
2021/04/30 08:05:50;;;;;;;15.82;11.88;;;11.30;76.50;;;;;;4989964;28;20022;-85
2021/04/30 08:08:16;;;;;;;16.73;12.82;;;11.20;76.30;;;;;;4991339;28;20439;-88
2021/04/30 08:10:42;;;;;;;19.95;14.27;;;11.10;76.30;;;;;;4989433;28;20022;-87
2021/04/30 08:13:08;;;;;;;17.85;12.00;;;11.10;76.40;;;;;;4990322;28;20030;-88
2021/04/30 08:15:34;;;;;;;15.68;11.50;;;11.20;76.60;;;;;;4991808;28;20031;-87
2021/04/30 08:17:59;;;;;;;14.25;10.68;;;11.20;76.50;;;;;;4989731;28;20037;-86
2021/04/30 08:20:25;;;;;;;15.20;10.35;;;11.30;76.60;;;;;;4991255;28;20042;-87
2021/04/30 08:22:50;;;;;;;15.73;9.02;;;11.30;76.60;;;;;;4988699;28;20026;-87
2021/04/30 08:25:16;;;;;;;11.40;7.63;;;11.30;76.50;;;;;;4991702;28;20026;-86
2021/04/30 08:27:41;;;;;;;12.52;8.88;;;11.30;76.40;;;;;;4990914;28;20041;-86
2021/04/30 08:30:08;;;;;;;12.38;8.73;;;11.30;76.40;;;;;;4991264;28;20381;-86
2021/04/30 08:32:34;;;;;;;16.63;11.32;;;11.30;76.50;;;;;;4990703;28;20030;-86
2021/04/30 08:34:59;;;;;;;12.40;8.98;;;11.30;76.50;;;;;;4990554;28;20030;-86
2021/04/30 08:37:25;;;;;;;14.50;10.50;;;11.30;76.60;;;;;;4989646;28;20093;-86
2021/04/30 08:39:51;;;;;;;13.48;9.48;;;11.30;76.60;;;;;;4987314;28;20026;-87
2021/04/30 08:42:17;;;;;;;11.43;8.25;;;11.30;76.60;;;;;;4990636;28;20045;-88
2021/04/30 08:44:44;;;;;;;11.18;8.18;;;11.30;76.50;;;;;;4989749;28;20053;-88
2021/04/30 08:47:16;;;;;;;12.95;9.35;;;11.30;76.40;;;;;;4990186;28;20026;-87
2021/04/30 08:49:42;;;;;;;13.20;9.18;;;11.30;76.40;;;;;;4989931;28;20030;-87
2021/04/30 08:52:10;;;;;;;12.15;9.35;;;11.30;76.40;;;;;;4989764;28;20400;-87
2021/04/30 08:54:37;;;;;;;12.02;8.98;;;11.40;76.40;;;;;;4987693;28;20023;-87
2021/04/30 08:57:05;;;;;;;17.15;13.18;;;11.40;76.20;;;;;;4990723;28;20022;-87
2021/04/30 08:59:32;;;;;;;17.63;13.07;;;11.50;76.00;;;;;;4989202;28;20462;-86
2021/04/30 09:01:59;;;;;;;15.63;11.38;;;11.40;75.60;;;;;;4990587;28;20057;-86
2021/04/30 09:04:25;;;;;;;15.43;10.77;;;11.40;75.60;;;;;;4991723;28;20030;-87
2021/04/30 09:06:51;;;;;;;15.05;12.10;;;11.50;75.60;;;;;;4990127;28;20034;-86
2021/04/30 09:09:18;;;;;;;13.75;10.63;;;11.50;75.40;;;;;;4990153;28;20113;-87
2021/04/30 09:11:52;;;;;;;11.52;8.95;;;11.50;75.20;;;;;;4990283;28;20036;-86
2021/04/30 09:14:29;;;;;;;20.10;14.90;;;11.70;75.30;;;;;;4989281;28;20508;-85
2021/04/30 09:17:03;;;;;;;19.45;12.80;;;11.70;74.80;;;;;;4991644;28;20038;-85
2021/04/30 09:19:50;;;;;;;16.35;11.00;;;11.80;74.80;;;;;;4994612;28;20031;-85
2021/04/30 09:22:20;;;;;;;10.82;8.85;;;11.80;74.60;;;;;;4993380;28;20725;-87
2021/04/30 09:24:57;;;;;;;18.15;12.95;;;12.00;74.40;;;;;;4992965;28;20399;-89
2021/04/30 09:27:30;;;;;;;18.02;13.45;;;12.00;73.80;;;;;;4994846;28;20038;-87
2021/04/30 09:30:14;;;;;;;19.40;13.98;;;11.90;73.50;;;;;;4992631;28;20509;-87
2021/04/30 09:33:03;;;;;;;17.90;14.13;;;11.80;73.50;;;;;;4994457;28;20385;-85
2021/04/30 09:35:29;;;;;;;22.73;15.45;;;11.70;73.60;;;;;;4994551;28;20079;-87
2021/04/30 09:37:57;;;;;;;17.95;12.65;;;11.70;73.80;;;;;;4993587;28;20022;-85
2021/04/30 09:40:31;;;;;;;13.00;9.40;;;11.70;74.00;;;;;;4996287;28;20026;-86
2021/04/30 09:43:04;;;;;;;11.00;8.93;;;11.90;73.90;;;;;;4993603;28;20088;-86
2021/04/30 09:45:31;;;;;;;16.83;12.52;;;12.00;73.70;;;;;;4993992;28;20058;-86
2021/04/30 09:47:59;;;;;;;14.10;11.05;;;12.20;73.20;;;;;;4994102;28;20088;-86
2021/04/30 09:50:29;;;;;;;13.85;10.98;;;12.30;72.70;;;;;;4992233;28;20493;-86
2021/04/30 09:53:03;;;;;;;17.70;13.68;;;12.50;72.30;;;;;;4992951;28;20535;-86
2021/04/30 09:55:41;;;;;;;18.67;12.77;;;12.60;72.00;;;;;;4993810;28;20038;-85
2021/04/30 09:58:18;;;;;;;11.95;9.23;;;12.60;71.60;;;;;;4990580;28;20061;-85
2021/04/30 10:00:46;;;;;;;13.48;9.82;;;12.60;71.90;;;;;;4994210;28;20448;-88
2021/04/30 10:03:16;;;;;;;17.08;12.88;;;12.60;71.90;;;;;;4990966;28;20034;-88
2021/04/30 10:06:19;;;;;;;14.00;10.48;;;12.50;71.80;;;;;;4998184;28;20026;-92
2021/04/30 10:09:20;;;;;;;;;;;12.50;72.10;;;;;;4993216;28;20034;-90
2021/04/30 10:11:48;;;;;;;13.18;8.70;;;12.40;72.20;;;;;;4971237;28;21619;-90
2021/04/30 10:14:13;;;;;;;13.32;10.70;;;12.20;72.50;;;;;;4985543;28;20080;-90
2021/04/30 10:16:40;;;;;;;16.77;12.13;;;12.10;72.60;;;;;;4992134;28;20109;-89
2021/04/30 10:19:06;;;;;;;18.35;14.00;;;12.00;72.70;;;;;;4993728;28;20442;-88
2021/04/30 10:21:36;;;;;;;16.35;11.65;;;12.00;72.80;;;;;;4994487;28;20073;-89
2021/04/30 10:24:03;;;;;;;12.98;10.05;;;12.00;72.90;;;;;;4992620;28;20034;-87
2021/04/30 10:26:30;;;;;;;18.95;13.77;;;12.00;72.90;;;;;;4994186;28;20030;-89
2021/04/30 10:28:59;;;;;;;15.90;12.65;;;12.10;73.00;;;;;;4993831;28;20019;-89
2021/04/30 10:31:46;;;;;;;14.23;10.88;;;12.10;73.00;;;;;;4994156;28;20022;-89
2021/04/30 10:34:20;;;;;;;14.80;11.50;;;12.20;72.90;;;;;;4993383;28;20053;-89
2021/04/30 10:36:51;;;;;;;16.65;12.10;;;12.20;72.70;;;;;;4994829;28;20034;-88
2021/04/30 10:39:32;;;;;;;12.20;10.37;;;12.30;72.70;;;;;;4993672;28;20026;-88
2021/04/30 10:42:07;;;;;;;22.73;16.25;;;12.30;72.70;;;;;;4999317;28;20049;-88
2021/04/30 10:44:33;;;;;;;13.88;11.32;;;12.20;72.40;;;;;;4999031;28;20381;-89
2021/04/30 10:47:24;;;;;;;11.40;8.85;;;12.10;72.60;;;;;;4995744;28;20037;-89
2021/04/30 10:50:17;;;;;;;14.88;10.57;;;12.10;72.70;;;;;;4992718;28;20058;-88
2021/04/30 10:52:44;;;;;;;14.73;11.27;;;12.10;72.90;;;;;;4991382;28;20117;-89
2021/04/30 10:55:17;;;;;;;14.20;11.63;;;12.00;73.10;;;;;;4999977;28;20022;-87
2021/04/30 10:57:55;;;;;;;14.00;11.20;;;12.00;73.30;;;;;;4994293;28;20034;-86
2021/04/30 11:00:44;;;;;;;13.65;10.35;;;11.90;73.50;;;;;;4988930;28;20039;-86
2021/04/30 11:03:26;;;;;;;9.18;7.40;;;11.90;73.70;;;;;;4985950;28;20482;-87
2021/04/30 11:06:00;;;;;;;13.23;10.10;;;11.90;73.80;;;;;;4992090;28;20493;-86
2021/04/30 11:08:47;;;;;;;13.70;9.57;;;11.90;74.10;;;;;;4992448;28;20064;-88
2021/04/30 11:11:14;;;;;;;15.13;11.85;;;11.90;74.20;;;;;;4986547;28;20493;-86
2021/04/30 11:13:40;;;;;;;12.43;10.02;;;11.80;74.40;;;;;;4991518;28;20031;-87
2021/04/30 11:16:05;;;;;;;11.35;8.75;;;11.90;74.60;;;;;;4992070;28;20027;-87
2021/04/30 11:18:58;;;;;;;10.43;7.63;;;11.90;74.90;;;;;;4993095;28;20093;-86
2021/04/30 11:21:40;;;;;;;10.63;7.90;;;12.10;74.50;;;;;;4995826;28;20049;-86
2021/04/30 11:24:28;;;;;;;10.30;8.67;;;12.20;74.20;;;;;;4991240;28;20058;-87
2021/04/30 11:27:31;;;;;;;10.05;7.97;;;12.30;73.90;;;;;;4990462;28;20277;-87
2021/04/30 11:30:37;;;;;;;13.40;10.43;;;12.50;73.90;;;;;;4989420;28;20018;-88
2021/04/30 11:33:02;;;;;;;15.40;12.32;;;12.50;73.60;;;;;;4975194;28;20034;-88
2021/04/30 11:35:29;;;;;;;14.40;11.10;;;12.40;73.50;;;;;;4990294;28;20050;-88
2021/04/30 11:37:55;;;;;;;14.43;11.63;;;12.40;73.60;;;;;;4992672;28;20622;-87
2021/04/30 11:40:23;;;;;;;16.30;12.98;;;12.40;73.90;;;;;;4984646;28;20039;-88
2021/04/30 11:42:49;;;;;;;17.63;11.07;;;12.40;73.90;;;;;;4990477;28;20041;-88
2021/04/30 11:45:15;;;;;;;13.95;11.18;;;12.50;74.00;;;;;;4992969;28;20433;-87
2021/04/30 11:47:41;;;;;;;13.75;10.50;;;12.60;73.90;;;;;;5003619;28;20033;-88
2021/04/30 11:50:09;;;;;;;11.43;8.55;;;12.70;73.70;;;;;;4997231;28;20114;-89
2021/04/30 11:52:46;;;;;;;10.40;8.77;;;12.90;73.50;;;;;;4992279;28;20049;-89
2021/04/30 11:55:18;;;;;;;13.00;11.07;;;12.90;73.40;;;;;;5003056;28;20864;-88
2021/04/30 11:57:50;;;;;;;13.65;11.38;;;13.10;73.10;;;;;;4994459;28;20034;-89
2021/04/30 12:00:22;;;;;;;13.23;10.02;;;13.20;73.00;;;;;;4992958;28;20481;-88
2021/04/30 12:03:08;;;;;;;20.27;16.55;;;13.30;72.90;;;;;;4990595;28;20080;-90
2021/04/30 12:05:34;;;;;;;13.25;11.00;;;13.30;71.90;;;;;;4992473;28;20022;-91
2021/04/30 12:08:00;;;;;;;12.50;10.95;;;13.30;71.90;;;;;;5001320;28;20036;-89
2021/04/30 12:10:29;;;;;;;14.57;12.60;;;13.30;71.80;;;;;;5011688;28;20469;-87
2021/04/30 12:12:54;;;;;;;17.55;14.60;;;13.30;71.60;;;;;;4995450;28;20019;-89
2021/04/30 12:15:35;;;;;;;14.77;12.35;;;13.20;71.10;;;;;;4994782;28;20037;-88
2021/04/30 12:18:02;;;;;;;11.15;9.35;;;13.20;71.30;;;;;;4991782;28;20539;-86
2021/04/30 12:20:32;;;;;;;16.88;13.05;;;13.30;71.30;;;;;;4995164;28;20029;-87
2021/04/30 12:23:06;;;;;;;19.25;16.50;;;13.30;71.20;;;;;;5006502;28;20060;-89
2021/04/30 12:25:40;;;;;;;20.00;14.80;;;13.30;71.10;;;;;;4990725;28;20489;-87
2021/04/30 12:28:22;;;;;;;14.05;11.95;;;13.20;71.10;;;;;;4991420;28;20034;-86
2021/04/30 12:31:01;;;;;;;13.77;11.07;;;13.30;71.00;;;;;;4990103;28;20026;-88
2021/04/30 12:33:47;;;;;;;14.57;12.25;;;13.40;70.90;;;;;;4992258;28;20269;-86
2021/04/30 12:36:29;;;;;;;12.20;9.70;;;13.40;70.60;;;;;;4983472;28;20038;-88
2021/04/30 12:39:08;;;;;;;9.50;8.13;;;13.50;70.40;;;;;;4988553;28;20054;-86
2021/04/30 12:41:39;;;;;;;12.90;10.23;;;13.70;70.30;;;;;;4999903;28;20088;-87
2021/04/30 12:44:07;;;;;;;8.88;7.55;;;13.90;69.80;;;;;;4992576;28;20022;-87
2021/04/30 12:46:35;;;;;;;15.10;12.98;;;14.10;69.30;;;;;;4991934;28;20022;-87
2021/04/30 12:49:12;;;;;;;13.45;11.32;;;14.20;68.60;;;;;;4988579;28;20022;-87
2021/04/30 12:51:41;;;;;;;9.40;7.97;;;14.40;68.30;;;;;;4987211;28;20026;-86